Terminal Aerodrome Forecast
Issued by NWS Burlington, VT

Current Version | Previous Version | Text Only | Print | Product List | Glossary On
Versions: 1 2 3 4 5 6 7 8 9 10 11 12 13 14 15 16 17 18 19 20
000 FTUS41 KBTV 251130 TAFBTV TAF KBTV 251130Z 2512/2612 VRB03KT P6SM BKN200 FM251400 18007KT P6SM BKN150 FM252000 19008KT P6SM VCSH BKN050 TEMPO 2520/2524 3SM TSRA BR BKN030CB FM260300 20006KT P6SM BKN050=

USA.gov is the U.S. government's official web portal to all federal, state and local government web resources and services.